Meteo Giornale » Osservazioni meteo Italia » Pratica Di Mare

ore: 03:55 - Osservazioni Meteo Pratica Di Mare
Lat. 41° 39' N Lon. 12° 27' E Alt. 6 metri s.l.m.

poco_nuvoloso Europe/Rome

23 °C

Poco Nuvoloso

Temp. 24 Ore

23 °C

31 °C

Ovest/Nord-Ovest

14.8 Km/h

Dew point 21 °C

Umidità 88 %

Visibilità  10 Km

Il sole sorge alle ore 06:04

Il sole tramonta alle ore 20:28

Data e Ora Cielo e Fenomeni T °C DP °C Um. % Pres. hPa Vis. km Vento km/h
Oggi h: 03:55 poco_nuvoloso Poco Nuvoloso 23 21 88 1012 10 O/NO 14.8
Oggi h: 02:55 nuvoloso Nuvoloso 23 21 88 1012 10 O 13
Oggi h: 01:55 sereno Sereno 23 21 88 1012 10 O/NO 11.1
Oggi h: 00:55 sereno Sereno 23 21 88 1012 10 O/NO 7.4
Ieri h: 23:55 sereno Sereno 24 22 88 1011 10 N/NO 9.3
Ieri h: 22:55 sereno Sereno 24 21 83 1011 10 N 5.5
Ieri h: 20:55 sereno Sereno 25 20 73 1010 10 NO 7.4
Ieri h: 18:55 sereno Sereno 28 20 61 1011 10 O/NO 16.7
Ieri h: 17:55 sereno Sereno 28 21 65 1011 10 O/NO 13
Ieri h: 16:55 nuvoloso Nuvoloso 29 24 74 1010 10 O 24
Ieri h: 15:55 nuvoloso Nuvoloso 30 24 70 1010 10 O/NO 22.2
Ieri h: 14:55 nuvoloso Nuvoloso 30 23 66 1010 10 O 16.7
Ieri h: 13:55 nuvoloso Nuvoloso 30 26 79 1010 10 O/SO 18.5
Ieri h: 12:55 nuvoloso Nuvoloso 31 28 84 1010 10 S 27.8
Ieri h: 11:55 nuvoloso Nuvoloso 31 27 79 1009 10 S/SE 33.3
Ieri h: 10:55 nuvoloso Nuvoloso 31 25 70 1008 10 S 22.2
Ieri h: 09:55 nuvoloso Nuvoloso 30 27 84 1009 10 S/SE 25.9
Ieri h: 08:55 poco_nuvoloso Poco Nuvoloso 30 26 79 1009 10 SE 27.8
Ieri h: 07:55 nuvoloso Nuvoloso 27 24 83 1008 10 E/SE 20.3
Ieri h: 06:55 nuvoloso Nuvoloso 25 20 73 1008 10 E/SE 18.5
Ieri h: 05:55 poco_nuvoloso Poco Nuvoloso 25 22 83 1008 10 SE 20.3
Ieri h: 04:55 poco_nuvoloso Poco Nuvoloso 25 23 88 1008 10 E/SE 16.7